This is the latest recevied weather packets stored in our database for station/object KC9DNQ-3. If no packets are shown the sender has not sent any weather packets the latest 1 day(s).
| Time | Temp. | Humidity | Pressure | Rain* | Wind** | Luminosity | Snow |
|---|---|---|---|---|---|---|---|
| 1778073909 | 8.89° C | 67% | 1012.9 hPa | 0 mm | - | 193 W/m² | - |
| 1778073309 | 8.33° C | 67% | 1012.9 hPa | 0 mm | - | 169 W/m² | - |
| 1778072410 | 7.78° C | 70% | 1012.8 hPa | 0 mm | - | 149 W/m² | - |
| 1778071809 | 7.78° C | 73% | 1012.7 hPa | 0 mm | - | 146 W/m² | - |
| 1778071209 | 7.22° C | 73% | 1012.7 hPa | 0 mm | - | 141 W/m² | - |
| 1778070910 | 7.22° C | 74% | 1012.5 hPa | 0 mm | - | 107 W/m² | - |
| 1778070609 | 6.67° C | 75% | 1012.5 hPa | 0 mm | - | 123 W/m² | - |
| 1778070309 | 6.67° C | 76% | 1012.5 hPa | 0 mm | - | 125 W/m² | - |
| 1778069109 | 5.56° C | 81% | 1012 hPa | 0 mm | - | 91 W/m² | - |
| 1778066409 | 4.44° C | 87% | 1011.5 hPa | 0 mm | - | 28 W/m² | - |
| 1778065808 | 4.44° C | 86% | 1011.3 hPa | 0 mm | - | 16 W/m² | - |
| 1778065209 | 4.44° C | 85% | 1011.3 hPa | 0 mm | - | 14 W/m² | - |
| 1778064608 | 4.44° C | 85% | 1011.3 hPa | 0 mm | - | 7 W/m² | - |
| 1778064008 | 4.44° C | 85% | 1011.1 hPa | 0 mm | - | 0 W/m² | - |
| 1778063709 | 4.44° C | 84% | 1011.1 hPa | 0 mm | - | 0 W/m² | - |
| 1778062808 | 4.44° C | 83% | 1010.9 hPa | 0 mm | - | 0 W/m² | - |
| 1778061909 | 5° C | 83% | 1010.7 hPa | 0 mm | - | 0 W/m² | - |
| 1778061609 | 5° C | 82% | 1010.7 hPa | 0 mm | - | 0 W/m² | - |
| 1778061309 | 5° C | 83% | 1010.6 hPa | 0 mm | - | 0 W/m² | - |
| 1778060709 | 5° C | 83% | 1010.6 hPa | 0 mm | - | 0 W/m² | - |
| 1778060109 | 5° C | 83% | 1010.7 hPa | 0 mm | - | 0 W/m² | - |
| 1778059209 | 5° C | 82% | 1010.7 hPa | 0 mm | - | 0 W/m² | - |
| 1778058908 | 5.56° C | 83% | 1010.7 hPa | 0 mm | - | 0 W/m² | - |
| 1778058610 | 5.56° C | 82% | 1010.7 hPa | 0 mm | - | 0 W/m² | - |
| 1778057408 | 5.56° C | 80% | 1010.3 hPa | 0 mm | - | 0 W/m² | - |
* Rain latest hour (hover to see other rain measurements)
** Current wind speed in m/s (hover to see current wind gust speed)